sensor_id;sensor_type;location;lat;lon;timestamp;temperature;humidity
44775;DHT22;31340;51.402;0.016;2022-09-23T00:01:19;17.50;94.20
44775;DHT22;31340;51.402;0.016;2022-09-23T00:03:47;17.60;94.20
44775;DHT22;31340;51.402;0.016;2022-09-23T00:06:18;17.50;94.30
44775;DHT22;31340;51.402;0.016;2022-09-23T00:08:46;17.50;94.30
44775;DHT22;31340;51.402;0.016;2022-09-23T00:11:21;17.50;94.30
44775;DHT22;31340;51.402;0.016;2022-09-23T00:13:55;17.50;94.40
44775;DHT22;31340;51.402;0.016;2022-09-23T00:16:28;17.50;94.40
44775;DHT22;31340;51.402;0.016;2022-09-23T00:18:57;17.50;94.50
44775;DHT22;31340;51.402;0.016;2022-09-23T00:21:24;17.50;94.50
44775;DHT22;31340;51.402;0.016;2022-09-23T00:23:52;17.50;94.50
44775;DHT22;31340;51.402;0.016;2022-09-23T00:26:21;17.50;94.60
44775;DHT22;31340;51.402;0.016;2022-09-23T00:28:49;17.50;94.60
44775;DHT22;31340;51.402;0.016;2022-09-23T00:31:22;17.50;94.60
44775;DHT22;31340;51.402;0.016;2022-09-23T00:33:57;17.50;94.70
44775;DHT22;31340;51.402;0.016;2022-09-23T00:36:26;17.40;94.70
44775;DHT22;31340;51.402;0.016;2022-09-23T00:38:54;17.40;94.70
44775;DHT22;31340;51.402;0.016;2022-09-23T00:41:22;17.40;94.80
44775;DHT22;31340;51.402;0.016;2022-09-23T00:43:55;17.40;94.80
44775;DHT22;31340;51.402;0.016;2022-09-23T00:49:07;17.40;94.80
44775;DHT22;31340;51.402;0.016;2022-09-23T00:51:44;17.40;94.90
44775;DHT22;31340;51.402;0.016;2022-09-23T00:54:14;17.40;95.00
44775;DHT22;31340;51.402;0.016;2022-09-23T00:56:43;17.40;94.90
44775;DHT22;31340;51.402;0.016;2022-09-23T00:59:11;17.40;95.00
44775;DHT22;31340;51.402;0.016;2022-09-23T01:01:41;17.40;95.10
44775;DHT22;31340;51.402;0.016;2022-09-23T01:04:09;17.40;95.10
44775;DHT22;31340;51.402;0.016;2022-09-23T01:06:37;17.30;95.10
44775;DHT22;31340;51.402;0.016;2022-09-23T01:09:04;17.30;95.20
44775;DHT22;31340;51.402;0.016;2022-09-23T01:11:41;17.30;95.20
44775;DHT22;31340;51.402;0.016;2022-09-23T01:17:06;17.30;95.40
44775;DHT22;31340;51.402;0.016;2022-09-23T01:19:41;17.20;95.40
44775;DHT22;31340;51.402;0.016;2022-09-23T01:29:01;17.10;95.60
44775;DHT22;31340;51.402;0.016;2022-09-23T01:34:34;17.10;95.60
44775;DHT22;31340;51.402;0.016;2022-09-23T01:37:14;17.10;95.70
44775;DHT22;31340;51.402;0.016;2022-09-23T01:39:55;17.10;95.70
44775;DHT22;31340;51.402;0.016;2022-09-23T01:42:35;17.10;95.70
44775;DHT22;31340;51.402;0.016;2022-09-23T01:45:25;17.00;95.70
44775;DHT22;31340;51.402;0.016;2022-09-23T01:48:05;17.00;95.80
44775;DHT22;31340;51.402;0.016;2022-09-23T01:50:51;17.00;95.90
44775;DHT22;31340;51.402;0.016;2022-09-23T01:56:23;17.00;96.00
44775;DHT22;31340;51.402;0.016;2022-09-23T01:59:01;17.00;96.00
44775;DHT22;31340;51.402;0.016;2022-09-23T02:01:37;17.00;96.10
44775;DHT22;31340;51.402;0.016;2022-09-23T02:04:15;17.00;96.10
44775;DHT22;31340;51.402;0.016;2022-09-23T02:06:49;17.00;96.20
44775;DHT22;31340;51.402;0.016;2022-09-23T02:09:22;17.00;96.20
44775;DHT22;31340;51.402;0.016;2022-09-23T02:11:51;17.00;96.20
44775;DHT22;31340;51.402;0.016;2022-09-23T02:14:37;17.00;96.20
44775;DHT22;31340;51.402;0.016;2022-09-23T02:17:10;17.00;96.30
44775;DHT22;31340;51.402;0.016;2022-09-23T02:22:39;17.00;96.40
44775;DHT22;31340;51.402;0.016;2022-09-23T02:25:07;17.00;96.50
44775;DHT22;31340;51.402;0.016;2022-09-23T02:28:10;17.00;96.50
44775;DHT22;31340;51.402;0.016;2022-09-23T02:30:56;17.00;96.70
44775;DHT22;31340;51.402;0.016;2022-09-23T02:33:33;17.00;96.80
44775;DHT22;31340;51.402;0.016;2022-09-23T02:39:11;17.00;96.90
44775;DHT22;31340;51.402;0.016;2022-09-23T02:42:11;17.00;96.90
44775;DHT22;31340;51.402;0.016;2022-09-23T02:44:39;17.00;97.00
44775;DHT22;31340;51.402;0.016;2022-09-23T02:47:07;17.00;97.00
44775;DHT22;31340;51.402;0.016;2022-09-23T02:49:35;17.00;97.10
44775;DHT22;31340;51.402;0.016;2022-09-23T02:52:04;17.00;97.20
44775;DHT22;31340;51.402;0.016;2022-09-23T02:54:33;17.00;97.20
44775;DHT22;31340;51.402;0.016;2022-09-23T02:57:04;17.00;97.20
44775;DHT22;31340;51.402;0.016;2022-09-23T02:59:32;17.00;97.30
44775;DHT22;31340;51.402;0.016;2022-09-23T03:02:19;17.00;97.30
44775;DHT22;31340;51.402;0.016;2022-09-23T03:05:26;17.00;97.50
44775;DHT22;31340;51.402;0.016;2022-09-23T03:16:36;17.00;97.80
44775;DHT22;31340;51.402;0.016;2022-09-23T03:21:50;16.90;97.50
44775;DHT22;31340;51.402;0.016;2022-09-23T03:24:21;16.90;97.80
44775;DHT22;31340;51.402;0.016;2022-09-23T03:26:50;16.90;97.90
44775;DHT22;31340;51.402;0.016;2022-09-23T03:29:20;17.00;98.00
44775;DHT22;31340;51.402;0.016;2022-09-23T03:31:49;17.00;98.00
44775;DHT22;31340;51.402;0.016;2022-09-23T03:34:22;17.00;98.00
44775;DHT22;31340;51.402;0.016;2022-09-23T03:36:54;17.00;98.10
44775;DHT22;31340;51.402;0.016;2022-09-23T03:39:37;17.00;98.10
44775;DHT22;31340;51.402;0.016;2022-09-23T03:42:11;17.00;98.00
44775;DHT22;31340;51.402;0.016;2022-09-23T03:44:44;17.00;98.10
44775;DHT22;31340;51.402;0.016;2022-09-23T03:47:14;17.00;98.20
44775;DHT22;31340;51.402;0.016;2022-09-23T03:49:45;17.00;98.20
44775;DHT22;31340;51.402;0.016;2022-09-23T03:52:25;17.00;98.20
44775;DHT22;31340;51.402;0.016;2022-09-23T03:54:52;17.10;98.30
44775;DHT22;31340;51.402;0.016;2022-09-23T03:57:21;17.00;98.20
44775;DHT22;31340;51.402;0.016;2022-09-23T03:59:50;17.10;98.20
44775;DHT22;31340;51.402;0.016;2022-09-23T04:02:18;17.10;98.30
44775;DHT22;31340;51.402;0.016;2022-09-23T04:04:46;17.10;98.30
44775;DHT22;31340;51.402;0.016;2022-09-23T04:07:14;17.00;98.20
44775;DHT22;31340;51.402;0.016;2022-09-23T04:09:42;17.10;98.30
44775;DHT22;31340;51.402;0.016;2022-09-23T04:12:14;17.00;98.30
44775;DHT22;31340;51.402;0.016;2022-09-23T04:14:42;17.10;98.30
44775;DHT22;31340;51.402;0.016;2022-09-23T04:17:10;17.00;98.30
44775;DHT22;31340;51.402;0.016;2022-09-23T04:19:38;17.00;98.30
44775;DHT22;31340;51.402;0.016;2022-09-23T04:22:07;17.10;98.40
44775;DHT22;31340;51.402;0.016;2022-09-23T04:24:34;17.00;98.40
44775;DHT22;31340;51.402;0.016;2022-09-23T04:27:02;17.00;98.40
44775;DHT22;31340;51.402;0.016;2022-09-23T04:29:30;17.00;98.40
44775;DHT22;31340;51.402;0.016;2022-09-23T04:31:57;17.00;98.50
44775;DHT22;31340;51.402;0.016;2022-09-23T04:34:26;16.90;98.40
44775;DHT22;31340;51.402;0.016;2022-09-23T04:36:53;17.00;98.50
44775;DHT22;31340;51.402;0.016;2022-09-23T04:39:21;17.00;98.50
44775;DHT22;31340;51.402;0.016;2022-09-23T04:41:48;17.00;98.50
44775;DHT22;31340;51.402;0.016;2022-09-23T04:44:16;17.00;98.50
44775;DHT22;31340;51.402;0.016;2022-09-23T04:46:44;17.00;98.50
44775;DHT22;31340;51.402;0.016;2022-09-23T04:49:15;17.00;98.50
44775;DHT22;31340;51.402;0.016;2022-09-23T04:51:42;17.00;98.50
44775;DHT22;31340;51.402;0.016;2022-09-23T04:54:11;17.00;98.60
44775;DHT22;31340;51.402;0.016;2022-09-23T04:56:40;16.90;98.60
44775;DHT22;31340;51.402;0.016;2022-09-23T04:59:08;16.90;98.60
44775;DHT22;31340;51.402;0.016;2022-09-23T05:01:36;16.90;98.60
44775;DHT22;31340;51.402;0.016;2022-09-23T05:04:06;16.90;98.60
44775;DHT22;31340;51.402;0.016;2022-09-23T05:06:35;16.90;98.70
44775;DHT22;31340;51.402;0.016;2022-09-23T05:09:05;16.80;98.70
44775;DHT22;31340;51.402;0.016;2022-09-23T05:11:33;16.80;98.80
44775;DHT22;31340;51.402;0.016;2022-09-23T05:14:01;16.80;98.80
44775;DHT22;31340;51.402;0.016;2022-09-23T05:16:28;16.80;98.80
44775;DHT22;31340;51.402;0.016;2022-09-23T05:18:56;16.80;98.90
44775;DHT22;31340;51.402;0.016;2022-09-23T05:21:25;16.80;99.00
44775;DHT22;31340;51.402;0.016;2022-09-23T05:23:56;16.80;99.00
44775;DHT22;31340;51.402;0.016;2022-09-23T05:26:29;16.80;99.00
44775;DHT22;31340;51.402;0.016;2022-09-23T05:28:57;16.80;99.10
44775;DHT22;31340;51.402;0.016;2022-09-23T05:31:26;16.80;99.00
44775;DHT22;31340;51.402;0.016;2022-09-23T05:33:56;16.80;99.10
44775;DHT22;31340;51.402;0.016;2022-09-23T05:36:25;16.80;99.20
44775;DHT22;31340;51.402;0.016;2022-09-23T05:38:53;16.70;99.10
44775;DHT22;31340;51.402;0.016;2022-09-23T05:41:23;16.70;99.20
44775;DHT22;31340;51.402;0.016;2022-09-23T05:43:53;16.70;99.20
44775;DHT22;31340;51.402;0.016;2022-09-23T05:46:23;16.70;99.60
44775;DHT22;31340;51.402;0.016;2022-09-23T05:48:51;16.70;99.30
44775;DHT22;31340;51.402;0.016;2022-09-23T05:51:21;16.70;99.30
44775;DHT22;31340;51.402;0.016;2022-09-23T05:53:53;16.70;99.40
44775;DHT22;31340;51.402;0.016;2022-09-23T05:56:22;16.70;99.40
44775;DHT22;31340;51.402;0.016;2022-09-23T05:58:52;16.70;99.50
44775;DHT22;31340;51.402;0.016;2022-09-23T06:01:22;16.70;99.50
44775;DHT22;31340;51.402;0.016;2022-09-23T06:03:54;16.70;99.60
44775;DHT22;31340;51.402;0.016;2022-09-23T06:06:42;16.70;99.60
44775;DHT22;31340;51.402;0.016;2022-09-23T06:09:12;16.80;99.70
44775;DHT22;31340;51.402;0.016;2022-09-23T06:11:41;16.80;99.60
44775;DHT22;31340;51.402;0.016;2022-09-23T06:14:12;16.70;99.60
44775;DHT22;31340;51.402;0.016;2022-09-23T06:16:41;16.80;99.70
44775;DHT22;31340;51.402;0.016;2022-09-23T06:19:09;16.80;99.70
44775;DHT22;31340;51.402;0.016;2022-09-23T06:21:38;16.80;99.70
44775;DHT22;31340;51.402;0.016;2022-09-23T06:24:07;16.80;99.80
44775;DHT22;31340;51.402;0.016;2022-09-23T06:26:35;16.80;99.90
44775;DHT22;31340;51.402;0.016;2022-09-23T06:29:09;16.80;99.90
44775;DHT22;31340;51.402;0.016;2022-09-23T06:31:38;16.90;99.90
44775;DHT22;31340;51.402;0.016;2022-09-23T06:34:11;16.90;99.90
44775;DHT22;31340;51.402;0.016;2022-09-23T06:36:41;16.80;99.90
44775;DHT22;31340;51.402;0.016;2022-09-23T06:39:13;16.80;99.90
44775;DHT22;31340;51.402;0.016;2022-09-23T06:41:42;16.80;99.90
44775;DHT22;31340;51.402;0.016;2022-09-23T06:44:13;16.90;99.90
44775;DHT22;31340;51.402;0.016;2022-09-23T06:46:41;16.90;99.90
44775;DHT22;31340;51.402;0.016;2022-09-23T06:49:09;16.90;99.90
44775;DHT22;31340;51.402;0.016;2022-09-23T06:51:39;17.00;99.90
44775;DHT22;31340;51.402;0.016;2022-09-23T06:54:07;16.90;99.90
44775;DHT22;31340;51.402;0.016;2022-09-23T06:56:35;17.00;99.90
44775;DHT22;31340;51.402;0.016;2022-09-23T06:59:08;17.00;99.90
44775;DHT22;31340;51.402;0.016;2022-09-23T07:01:35;17.00;99.90
44775;DHT22;31340;51.402;0.016;2022-09-23T07:04:04;17.00;99.90
44775;DHT22;31340;51.402;0.016;2022-09-23T07:06:34;17.00;99.90
44775;DHT22;31340;51.402;0.016;2022-09-23T07:09:02;17.00;99.90
44775;DHT22;31340;51.402;0.016;2022-09-23T07:11:29;17.00;99.90
44775;DHT22;31340;51.402;0.016;2022-09-23T07:13:57;17.00;99.90
44775;DHT22;31340;51.402;0.016;2022-09-23T07:16:25;17.10;99.90
44775;DHT22;31340;51.402;0.016;2022-09-23T07:18:52;17.10;99.90
44775;DHT22;31340;51.402;0.016;2022-09-23T07:21:20;17.10;99.90
44775;DHT22;31340;51.402;0.016;2022-09-23T07:23:49;17.10;99.90
44775;DHT22;31340;51.402;0.016;2022-09-23T07:26:18;17.10;99.90
44775;DHT22;31340;51.402;0.016;2022-09-23T07:28:46;17.20;99.90
44775;DHT22;31340;51.402;0.016;2022-09-23T07:31:16;17.20;99.90
44775;DHT22;31340;51.402;0.016;2022-09-23T07:33:58;17.20;99.90
44775;DHT22;31340;51.402;0.016;2022-09-23T07:36:28;17.20;99.90
44775;DHT22;31340;51.402;0.016;2022-09-23T07:38:59;17.30;99.90
44775;DHT22;31340;51.402;0.016;2022-09-23T07:41:31;17.30;99.90
44775;DHT22;31340;51.402;0.016;2022-09-23T07:43:59;17.30;99.90
44775;DHT22;31340;51.402;0.016;2022-09-23T07:46:29;17.30;99.90
44775;DHT22;31340;51.402;0.016;2022-09-23T07:48:58;17.40;99.90
44775;DHT22;31340;51.402;0.016;2022-09-23T07:51:34;17.40;99.90
44775;DHT22;31340;51.402;0.016;2022-09-23T07:54:05;17.40;99.90
44775;DHT22;31340;51.402;0.016;2022-09-23T07:56:34;17.40;99.90
44775;DHT22;31340;51.402;0.016;2022-09-23T07:59:06;17.40;99.90
44775;DHT22;31340;51.402;0.016;2022-09-23T08:01:38;17.30;99.90
44775;DHT22;31340;51.402;0.016;2022-09-23T08:06:48;17.50;99.90
44775;DHT22;31340;51.402;0.016;2022-09-23T08:09:17;17.50;99.90
44775;DHT22;31340;51.402;0.016;2022-09-23T08:11:45;17.50;99.90
44775;DHT22;31340;51.402;0.016;2022-09-23T08:14:13;17.50;99.90
44775;DHT22;31340;51.402;0.016;2022-09-23T08:16:41;17.50;99.90
44775;DHT22;31340;51.402;0.016;2022-09-23T08:19:11;17.60;99.90
44775;DHT22;31340;51.402;0.016;2022-09-23T08:21:39;17.60;99.90
44775;DHT22;31340;51.402;0.016;2022-09-23T08:24:11;17.60;99.90
44775;DHT22;31340;51.402;0.016;2022-09-23T08:26:40;17.60;99.90
44775;DHT22;31340;51.402;0.016;2022-09-23T08:29:07;17.60;99.90
44775;DHT22;31340;51.402;0.016;2022-09-23T08:31:38;17.70;99.90
44775;DHT22;31340;51.402;0.016;2022-09-23T08:34:06;17.70;99.90
44775;DHT22;31340;51.402;0.016;2022-09-23T08:36:34;17.70;99.90
44775;DHT22;31340;51.402;0.016;2022-09-23T08:39:03;17.80;99.90
44775;DHT22;31340;51.402;0.016;2022-09-23T08:41:56;17.80;99.90
44775;DHT22;31340;51.402;0.016;2022-09-23T08:44:48;17.80;99.90
44775;DHT22;31340;51.402;0.016;2022-09-23T08:49:54;17.80;99.90
44775;DHT22;31340;51.402;0.016;2022-09-23T08:52:33;17.80;99.90
44775;DHT22;31340;51.402;0.016;2022-09-23T08:55:02;17.80;99.90
44775;DHT22;31340;51.402;0.016;2022-09-23T08:59:58;17.90;99.90
44775;DHT22;31340;51.402;0.016;2022-09-23T09:02:28;17.90;99.90
44775;DHT22;31340;51.402;0.016;2022-09-23T09:05:00;17.90;99.90
44775;DHT22;31340;51.402;0.016;2022-09-23T09:07:37;17.90;99.90
44775;DHT22;31340;51.402;0.016;2022-09-23T09:10:20;18.00;99.90
44775;DHT22;31340;51.402;0.016;2022-09-23T09:13:04;18.00;99.90
44775;DHT22;31340;51.402;0.016;2022-09-23T09:15:55;18.00;99.90
44775;DHT22;31340;51.402;0.016;2022-09-23T09:18:28;18.00;99.90
44775;DHT22;31340;51.402;0.016;2022-09-23T09:23:55;18.00;99.90
44775;DHT22;31340;51.402;0.016;2022-09-23T09:26:26;18.10;99.90
44775;DHT22;31340;51.402;0.016;2022-09-23T09:29:06;18.10;99.90
44775;DHT22;31340;51.402;0.016;2022-09-23T09:31:55;18.20;99.90
44775;DHT22;31340;51.402;0.016;2022-09-23T09:34:36;18.20;99.90
44775;DHT22;31340;51.402;0.016;2022-09-23T09:39:49;18.20;99.90
44775;DHT22;31340;51.402;0.016;2022-09-23T09:42:22;18.30;99.90
44775;DHT22;31340;51.402;0.016;2022-09-23T09:45:04;18.30;99.90
44775;DHT22;31340;51.402;0.016;2022-09-23T09:50:15;18.40;99.90
44775;DHT22;31340;51.402;0.016;2022-09-23T09:52:48;18.40;99.90
44775;DHT22;31340;51.402;0.016;2022-09-23T09:55:26;18.50;99.90
44775;DHT22;31340;51.402;0.016;2022-09-23T09:57:57;18.60;99.90
44775;DHT22;31340;51.402;0.016;2022-09-23T10:08:33;18.70;99.90
44775;DHT22;31340;51.402;0.016;2022-09-23T10:11:17;18.70;99.90
44775;DHT22;31340;51.402;0.016;2022-09-23T10:16:37;18.70;99.90
44775;DHT22;31340;51.402;0.016;2022-09-23T10:19:26;18.70;99.90
44775;DHT22;31340;51.402;0.016;2022-09-23T10:21:57;18.70;99.90
44775;DHT22;31340;51.402;0.016;2022-09-23T10:24:31;18.60;99.90
44775;DHT22;31340;51.402;0.016;2022-09-23T10:27:07;18.60;99.90
44775;DHT22;31340;51.402;0.016;2022-09-23T10:29:48;18.60;99.90
44775;DHT22;31340;51.402;0.016;2022-09-23T10:32:24;18.60;99.90
44775;DHT22;31340;51.402;0.016;2022-09-23T10:40:38;18.50;99.90
44775;DHT22;31340;51.402;0.016;2022-09-23T10:47:05;18.50;99.90
44775;DHT22;31340;51.402;0.016;2022-09-23T11:18:05;18.70;99.90
44775;DHT22;31340;51.402;0.016;2022-09-23T11:20:58;18.60;99.90
44775;DHT22;31340;51.402;0.016;2022-09-23T11:29:12;18.80;99.90
44775;DHT22;31340;51.402;0.016;2022-09-23T11:32:05;18.80;99.90
44775;DHT22;31340;51.402;0.016;2022-09-23T11:37:37;19.00;99.90
44775;DHT22;31340;51.402;0.016;2022-09-23T11:43:02;19.20;99.90
44775;DHT22;31340;51.402;0.016;2022-09-23T11:45:38;19.30;99.90
44775;DHT22;31340;51.402;0.016;2022-09-23T11:49:15;19.40;99.90
44775;DHT22;31340;51.402;0.016;2022-09-23T11:54:02;19.60;99.90
44775;DHT22;31340;51.402;0.016;2022-09-23T11:56:42;19.70;99.90
44775;DHT22;31340;51.402;0.016;2022-09-23T12:00:06;19.80;99.90
44775;DHT22;31340;51.402;0.016;2022-09-23T12:02:30;20.00;99.90
44775;DHT22;31340;51.402;0.016;2022-09-23T12:05:17;20.10;99.90
44775;DHT22;31340;51.402;0.016;2022-09-23T12:13:40;20.40;97.70
44775;DHT22;31340;51.402;0.016;2022-09-23T12:16:42;20.40;97.40
44775;DHT22;31340;51.402;0.016;2022-09-23T12:25:40;20.50;96.20
44775;DHT22;31340;51.402;0.016;2022-09-23T12:28:22;20.40;96.10
44775;DHT22;31340;51.402;0.016;2022-09-23T12:30:55;20.40;95.80
44775;DHT22;31340;51.402;0.016;2022-09-23T12:33:25;20.40;95.70
44775;DHT22;31340;51.402;0.016;2022-09-23T12:36:08;20.30;95.30
44775;DHT22;31340;51.402;0.016;2022-09-23T12:41:30;20.30;94.80
44775;DHT22;31340;51.402;0.016;2022-09-23T12:46:44;20.20;95.20
44775;DHT22;31340;51.402;0.016;2022-09-23T12:49:23;20.30;95.20
44775;DHT22;31340;51.402;0.016;2022-09-23T12:54:39;20.30;95.30
44775;DHT22;31340;51.402;0.016;2022-09-23T13:05:47;20.50;94.10
44775;DHT22;31340;51.402;0.016;2022-09-23T13:08:40;20.50;93.80
44775;DHT22;31340;51.402;0.016;2022-09-23T13:11:28;20.50;93.60
44775;DHT22;31340;51.402;0.016;2022-09-23T13:13:59;20.50;93.40
44775;DHT22;31340;51.402;0.016;2022-09-23T13:16:42;20.50;93.30
44775;DHT22;31340;51.402;0.016;2022-09-23T13:22:05;20.50;93.20
44775;DHT22;31340;51.402;0.016;2022-09-23T13:24:40;20.50;93.10
44775;DHT22;31340;51.402;0.016;2022-09-23T13:27:21;20.50;92.90
44775;DHT22;31340;51.402;0.016;2022-09-23T13:32:33;20.90;93.10
44775;DHT22;31340;51.402;0.016;2022-09-23T13:35:25;21.10;93.10
44775;DHT22;31340;51.402;0.016;2022-09-23T13:37:56;21.30;92.40
44775;DHT22;31340;51.402;0.016;2022-09-23T13:40:26;21.50;91.90
44775;DHT22;31340;51.402;0.016;2022-09-23T13:42:59;21.70;91.10
44775;DHT22;31340;51.402;0.016;2022-09-23T13:45:29;21.90;91.00
44775;DHT22;31340;51.402;0.016;2022-09-23T13:48:04;22.10;90.20
44775;DHT22;31340;51.402;0.016;2022-09-23T13:50:33;22.20;88.60
44775;DHT22;31340;51.402;0.016;2022-09-23T13:53:10;22.40;87.20
44775;DHT22;31340;51.402;0.016;2022-09-23T13:55:39;22.50;85.60
44775;DHT22;31340;51.402;0.016;2022-09-23T13:58:15;22.60;85.30
44775;DHT22;31340;51.402;0.016;2022-09-23T14:00:45;22.70;83.70
44775;DHT22;31340;51.402;0.016;2022-09-23T14:03:34;22.70;83.20
44775;DHT22;31340;51.402;0.016;2022-09-23T14:06:08;22.80;82.60
44775;DHT22;31340;51.402;0.016;2022-09-23T14:08:38;22.90;83.50
44775;DHT22;31340;51.402;0.016;2022-09-23T14:11:06;22.90;82.30
44775;DHT22;31340;51.402;0.016;2022-09-23T14:13:40;22.90;81.50
44775;DHT22;31340;51.402;0.016;2022-09-23T14:16:11;23.00;81.30
44775;DHT22;31340;51.402;0.016;2022-09-23T14:18:45;23.00;81.90
44775;DHT22;31340;51.402;0.016;2022-09-23T14:24:19;23.00;80.90
44775;DHT22;31340;51.402;0.016;2022-09-23T14:26:54;23.00;80.60
44775;DHT22;31340;51.402;0.016;2022-09-23T14:29:25;23.00;80.60
44775;DHT22;31340;51.402;0.016;2022-09-23T14:31:55;23.00;80.60
44775;DHT22;31340;51.402;0.016;2022-09-23T14:34:49;22.90;79.90
44775;DHT22;31340;51.402;0.016;2022-09-23T14:40:19;22.90;80.80
44775;DHT22;31340;51.402;0.016;2022-09-23T14:42:49;23.00;80.80
44775;DHT22;31340;51.402;0.016;2022-09-23T14:45:23;23.00;80.50
44775;DHT22;31340;51.402;0.016;2022-09-23T14:47:57;23.00;80.70
44775;DHT22;31340;51.402;0.016;2022-09-23T14:50:28;23.00;80.40
44775;DHT22;31340;51.402;0.016;2022-09-23T14:55:50;23.00;80.30
44775;DHT22;31340;51.402;0.016;2022-09-23T14:58:23;23.00;80.40
44775;DHT22;31340;51.402;0.016;2022-09-23T15:00:57;23.00;80.70
44775;DHT22;31340;51.402;0.016;2022-09-23T15:03:29;22.90;80.60
44775;DHT22;31340;51.402;0.016;2022-09-23T15:06:04;22.90;80.10
44775;DHT22;31340;51.402;0.016;2022-09-23T15:08:35;22.90;79.80
44775;DHT22;31340;51.402;0.016;2022-09-23T15:11:03;22.80;79.80
44775;DHT22;31340;51.402;0.016;2022-09-23T15:13:41;22.70;79.80
44775;DHT22;31340;51.402;0.016;2022-09-23T15:16:14;22.70;79.60
44775;DHT22;31340;51.402;0.016;2022-09-23T15:18:43;22.60;80.50
44775;DHT22;31340;51.402;0.016;2022-09-23T15:21:15;22.60;79.70
44775;DHT22;31340;51.402;0.016;2022-09-23T15:29:08;22.50;80.70
44775;DHT22;31340;51.402;0.016;2022-09-23T15:31:36;22.50;80.80
44775;DHT22;31340;51.402;0.016;2022-09-23T15:34:04;22.40;81.10
44775;DHT22;31340;51.402;0.016;2022-09-23T15:36:32;22.50;81.10
44775;DHT22;31340;51.402;0.016;2022-09-23T15:39:02;22.60;80.90
44775;DHT22;31340;51.402;0.016;2022-09-23T15:41:30;22.70;81.20
44775;DHT22;31340;51.402;0.016;2022-09-23T15:44:17;22.80;80.90
44775;DHT22;31340;51.402;0.016;2022-09-23T15:46:49;23.10;80.90
44775;DHT22;31340;51.402;0.016;2022-09-23T15:49:38;23.40;80.50
44775;DHT22;31340;51.402;0.016;2022-09-23T15:52:08;23.70;79.60
44775;DHT22;31340;51.402;0.016;2022-09-23T15:54:36;23.90;79.30
44775;DHT22;31340;51.402;0.016;2022-09-23T15:57:04;24.30;78.60
44775;DHT22;31340;51.402;0.016;2022-09-23T15:59:31;24.50;77.30
44775;DHT22;31340;51.402;0.016;2022-09-23T16:02:01;24.80;75.90
44775;DHT22;31340;51.402;0.016;2022-09-23T16:04:32;25.00;74.60
44775;DHT22;31340;51.402;0.016;2022-09-23T16:07:01;25.20;73.80
44775;DHT22;31340;51.402;0.016;2022-09-23T16:09:30;25.40;73.00
44775;DHT22;31340;51.402;0.016;2022-09-23T16:11:58;25.50;72.60
44775;DHT22;31340;51.402;0.016;2022-09-23T16:14:28;25.60;71.70
44775;DHT22;31340;51.402;0.016;2022-09-23T16:16:55;25.60;71.20
44775;DHT22;31340;51.402;0.016;2022-09-23T16:19:23;25.60;70.50
44775;DHT22;31340;51.402;0.016;2022-09-23T16:21:51;25.60;70.30
44775;DHT22;31340;51.402;0.016;2022-09-23T16:24:19;25.50;69.60
44775;DHT22;31340;51.402;0.016;2022-09-23T16:26:55;25.40;69.30
44775;DHT22;31340;51.402;0.016;2022-09-23T16:29:26;25.20;69.20
44775;DHT22;31340;51.402;0.016;2022-09-23T16:31:53;25.00;69.20
44775;DHT22;31340;51.402;0.016;2022-09-23T16:34:21;24.80;69.50
44775;DHT22;31340;51.402;0.016;2022-09-23T16:36:49;24.60;69.80
44775;DHT22;31340;51.402;0.016;2022-09-23T16:39:16;24.40;70.30
44775;DHT22;31340;51.402;0.016;2022-09-23T16:41:46;24.20;70.40
44775;DHT22;31340;51.402;0.016;2022-09-23T16:44:14;24.10;70.80
44775;DHT22;31340;51.402;0.016;2022-09-23T16:46:42;23.80;70.90
44775;DHT22;31340;51.402;0.016;2022-09-23T16:49:10;23.70;71.70
44775;DHT22;31340;51.402;0.016;2022-09-23T16:51:38;23.50;72.10
44775;DHT22;31340;51.402;0.016;2022-09-23T16:54:09;23.30;72.40
44775;DHT22;31340;51.402;0.016;2022-09-23T16:56:37;23.10;73.30
44775;DHT22;31340;51.402;0.016;2022-09-23T16:59:06;23.00;73.60
44775;DHT22;31340;51.402;0.016;2022-09-23T17:01:34;22.80;74.50
44775;DHT22;31340;51.402;0.016;2022-09-23T17:04:20;22.60;74.90
44775;DHT22;31340;51.402;0.016;2022-09-23T17:06:50;22.50;75.50
44775;DHT22;31340;51.402;0.016;2022-09-23T17:09:20;22.40;76.10
44775;DHT22;31340;51.402;0.016;2022-09-23T17:12:03;22.20;76.40
44775;DHT22;31340;51.402;0.016;2022-09-23T17:14:35;22.10;76.80
44775;DHT22;31340;51.402;0.016;2022-09-23T17:17:03;22.00;77.30
44775;DHT22;31340;51.402;0.016;2022-09-23T17:19:30;21.90;77.70
44775;DHT22;31340;51.402;0.016;2022-09-23T17:22:00;21.80;78.20
44775;DHT22;31340;51.402;0.016;2022-09-23T17:24:27;21.70;78.50
44775;DHT22;31340;51.402;0.016;2022-09-23T17:26:55;21.60;78.90
44775;DHT22;31340;51.402;0.016;2022-09-23T17:29:22;21.50;79.40
44775;DHT22;31340;51.402;0.016;2022-09-23T17:31:52;21.40;79.90
44775;DHT22;31340;51.402;0.016;2022-09-23T17:34:20;21.30;80.40
44775;DHT22;31340;51.402;0.016;2022-09-23T17:36:48;21.20;80.90
44775;DHT22;31340;51.402;0.016;2022-09-23T17:39:16;21.10;81.60
44775;DHT22;31340;51.402;0.016;2022-09-23T17:41:43;21.00;82.10
44775;DHT22;31340;51.402;0.016;2022-09-23T17:44:11;20.90;82.50
44775;DHT22;31340;51.402;0.016;2022-09-23T17:46:40;20.80;83.00
44775;DHT22;31340;51.402;0.016;2022-09-23T17:49:08;20.70;83.30
44775;DHT22;31340;51.402;0.016;2022-09-23T17:51:36;20.60;83.70
44775;DHT22;31340;51.402;0.016;2022-09-23T17:54:03;20.50;83.90
44775;DHT22;31340;51.402;0.016;2022-09-23T17:56:31;20.40;84.30
44775;DHT22;31340;51.402;0.016;2022-09-23T17:59:00;20.40;84.90
44775;DHT22;31340;51.402;0.016;2022-09-23T18:01:29;20.30;85.30
44775;DHT22;31340;51.402;0.016;2022-09-23T18:03:59;20.20;85.60
44775;DHT22;31340;51.402;0.016;2022-09-23T18:06:28;20.10;85.90
44775;DHT22;31340;51.402;0.016;2022-09-23T18:08:59;20.00;86.30
44775;DHT22;31340;51.402;0.016;2022-09-23T18:11:29;20.00;86.90
44775;DHT22;31340;51.402;0.016;2022-09-23T18:14:01;19.90;87.10
44775;DHT22;31340;51.402;0.016;2022-09-23T18:16:33;19.80;87.80
44775;DHT22;31340;51.402;0.016;2022-09-23T18:19:03;19.80;88.20
44775;DHT22;31340;51.402;0.016;2022-09-23T18:21:36;19.70;88.20
44775;DHT22;31340;51.402;0.016;2022-09-23T18:24:04;19.70;88.80
44775;DHT22;31340;51.402;0.016;2022-09-23T18:26:52;19.60;88.70
44775;DHT22;31340;51.402;0.016;2022-09-23T18:29:22;19.60;88.90
44775;DHT22;31340;51.402;0.016;2022-09-23T18:31:49;19.50;89.10
44775;DHT22;31340;51.402;0.016;2022-09-23T18:34:17;19.50;90.10
44775;DHT22;31340;51.402;0.016;2022-09-23T18:36:45;19.50;89.60
44775;DHT22;31340;51.402;0.016;2022-09-23T18:39:13;19.40;89.20
44775;DHT22;31340;51.402;0.016;2022-09-23T18:41:40;19.40;88.70
44775;DHT22;31340;51.402;0.016;2022-09-23T18:44:08;19.30;88.20
44775;DHT22;31340;51.402;0.016;2022-09-23T18:46:36;19.30;88.20